Time;durP1;ratioP1;P1;durP2;ratioP2;P2;SDS_P1;SDS_P2;PMS_P1;PMS_P2;Temp;Humidity;BMP_temperature;BMP_pressure;BME280_temperature;BME280_humidity;BME280_pressure;Samples;Min_cycle;Max_cycle;Signal;HPM_P1;HPM_P2
2022/07/18 00:01:31;;;;;;;;;;;;;;;16.14;44.56;101572.41;4843198;28;98564;-56
2022/07/18 00:04:23;;;;;;;;;;;;;;;16.23;44.30;101568.03;4841650;28;98248;-64
2022/07/18 00:07:16;;;;;;;;;;;;;;;16.29;44.26;101558.75;4842080;28;98111;-62
2022/07/18 00:10:09;;;;;;;;;;;;;;;16.29;44.56;101560.66;4842054;28;97816;-56
2022/07/18 00:13:01;;;;;;;;;;;;;;;16.26;44.41;101553.03;4842482;28;98095;-62
2022/07/18 00:15:54;;;;;;;;;;;;;;;16.20;44.37;101555.78;4906137;28;99563;-63
2022/07/18 00:18:47;;;;;;;;;;;;;;;16.17;44.29;101552.81;4842835;28;98448;-56
2022/07/18 00:21:40;;;;;;;;;;;;;;;16.13;44.48;101560.72;4843947;28;97962;-64
2022/07/18 00:24:32;;;;;;;;;;;;;;;16.13;44.45;101562.63;4841875;28;98294;-56
2022/07/18 00:27:25;;;;;;;;;;;;;;;16.12;44.54;101563.72;4842504;28;98337;-56
2022/07/18 00:30:17;;;;;;;;;;;;;;;16.12;44.50;101564.53;4841411;28;98165;-56
2022/07/18 00:33:10;;;;;;;;;;;;;;;16.14;44.59;101565.06;4906221;28;98514;-62
2022/07/18 00:36:03;;;;;;;;;;;;;;;16.14;44.77;101566.97;4841828;28;98405;-56
2022/07/18 00:38:55;;;;;;;;;;;;;;;16.12;44.43;101569.16;4841931;28;97996;-62
2022/07/18 00:41:48;;;;;;;;;;;;;;;16.11;44.61;101578.41;4842601;28;97932;-64
2022/07/18 00:44:50;;;;;;;;;;;;;;;16.08;44.76;101576.25;4906860;28;97990;-56
2022/07/18 00:47:43;;;;;;;;;;;;;;;16.03;44.77;101577.06;4904669;28;97958;-64
2022/07/18 00:50:45;;;;;;;;;;;;;;;16.00;45.14;101587.69;4840815;28;98797;-56
2022/07/18 00:53:37;;;;;;;;;;;;;;;15.96;45.20;101592.88;4842264;28;97948;-56
2022/07/18 00:56:30;;;;;;;;;;;;;;;15.94;45.51;101586.88;4841014;28;97892;-57
2022/07/18 01:01:42;;;;;;;;;;;;;;;15.90;45.47;101592.06;4840961;28;98380;-57
2022/07/18 01:02:26;;;;;;;;;;;;;;;15.89;45.57;101603.22;4846291;28;99027;-56
2022/07/18 01:05:19;;;;;;;;;;;;;;;15.86;45.64;101592.88;4840064;28;99372;-63
2022/07/18 01:08:11;;;;;;;;;;;;;;;15.83;45.73;101594.25;4842781;28;98082;-63
2022/07/18 01:11:04;;;;;;;;;;;;;;;15.79;46.11;101593.16;4821581;28;99478;-63
2022/07/18 01:13:57;;;;;;;;;;;;;;;15.73;46.20;101599.72;4823918;28;98998;-63
2022/07/18 01:16:50;;;;;;;;;;;;;;;15.65;46.55;101605.72;4823062;28;97928;-57
2022/07/18 01:19:43;;;;;;;;;;;;;;;15.58;46.38;101597.78;4841451;28;97824;-56
2022/07/18 01:22:38;;;;;;;;;;;;;;;15.54;46.54;101604.88;4916486;28;98583;-57
2022/07/18 01:25:31;;;;;;;;;;;;;;;15.50;46.82;101601.06;4836257;28;98089;-63
2022/07/18 01:28:23;;;;;;;;;;;;;;;15.48;46.78;101614.09;4841647;28;97834;-57
2022/07/18 01:31:16;;;;;;;;;;;;;;;15.43;46.96;101609.47;4837121;28;98028;-57
2022/07/18 01:34:12;;;;;;;;;;;;;;;15.39;46.91;101605.69;4840131;28;98203;-56
2022/07/18 01:37:04;;;;;;;;;;;;;;;15.34;46.99;101597.53;4841119;28;99126;-57
2022/07/18 01:39:57;;;;;;;;;;;;;;;15.27;47.19;101604.34;4842365;28;97780;-63
2022/07/18 01:42:49;;;;;;;;;;;;;;;15.21;47.52;101606.25;4823311;28;98205;-57
2022/07/18 01:45:42;;;;;;;;;;;;;;;15.14;47.64;101603.78;4837256;28;98932;-57
2022/07/18 01:48:36;;;;;;;;;;;;;;;15.05;47.46;101602.69;4841526;28;98401;-63
2022/07/18 01:51:28;;;;;;;;;;;;;;;15.00;47.43;101607.28;4841249;28;99075;-57
2022/07/18 01:54:21;;;;;;;;;;;;;;;14.93;47.71;101615.69;4841419;28;97900;-58
2022/07/18 01:57:14;;;;;;;;;;;;;;;14.89;47.55;101615.41;4841423;28;98467;-62
2022/07/18 02:00:07;;;;;;;;;;;;;;;14.83;47.92;101618.41;4840822;28;98448;-57
2022/07/18 02:02:59;;;;;;;;;;;;;;;14.77;47.93;101614.84;4841530;28;98020;-63
2022/07/18 02:05:52;;;;;;;;;;;;;;;14.71;47.73;101619.44;4841147;28;98224;-63
2022/07/18 02:08:44;;;;;;;;;;;;;;;14.67;47.88;101617.53;4843613;28;98184;-57
2022/07/18 02:11:37;;;;;;;;;;;;;;;14.66;47.96;101616.72;4844125;28;98191;-64
2022/07/18 02:14:29;;;;;;;;;;;;;;;14.67;48.23;101614.81;4831123;28;98516;-64
2022/07/18 02:17:22;;;;;;;;;;;;;;;14.66;48.44;101621.34;4843970;28;97840;-57
2022/07/18 02:20:15;;;;;;;;;;;;;;;14.60;48.37;101620.50;4924231;28;98470;-57
2022/07/18 02:23:08;;;;;;;;;;;;;;;14.56;48.38;101624.81;4842851;28;98387;-63
2022/07/18 02:26:00;;;;;;;;;;;;;;;14.55;48.22;101619.66;4843126;28;99237;-64
2022/07/18 02:28:53;;;;;;;;;;;;;;;14.55;48.23;101620.47;4843881;28;97944;-63
2022/07/18 02:31:45;;;;;;;;;;;;;;;14.54;48.74;101624.28;4844398;28;98287;-56
2022/07/18 02:34:38;;;;;;;;;;;;;;;14.54;48.27;101626.16;4841767;28;98365;-63
2022/07/18 02:37:30;;;;;;;;;;;;;;;14.52;48.85;101614.78;4843922;28;97842;-57
2022/07/18 02:40:23;;;;;;;;;;;;;;;14.47;48.65;101621.78;4843265;28;97974;-63
2022/07/18 02:43:16;;;;;;;;;;;;;;;14.43;49.02;101622.59;4843818;28;98104;-64
2022/07/18 02:46:08;;;;;;;;;;;;;;;14.35;49.09;101618.47;4828419;28;98932;-57
2022/07/18 02:49:01;;;;;;;;;;;;;;;14.31;48.88;101614.66;4842544;28;98084;-56
2022/07/18 02:51:54;;;;;;;;;;;;;;;14.29;49.16;101622.22;4844688;28;98018;-56
2022/07/18 02:54:47;;;;;;;;;;;;;;;14.29;49.17;101621.41;4842829;28;99495;-57
2022/07/18 02:57:39;;;;;;;;;;;;;;;14.23;49.50;101607.84;4843370;28;97777;-56
2022/07/18 03:00:32;;;;;;;;;;;;;;;14.19;49.40;101611.34;4844614;28;98244;-63
2022/07/18 03:03:25;;;;;;;;;;;;;;;14.13;49.63;101601.56;4844302;28;97837;-58
2022/07/18 03:06:17;;;;;;;;;;;;;;;14.08;49.80;101605.06;4842850;28;98416;-57
2022/07/18 03:09:10;;;;;;;;;;;;;;;14.05;49.24;101599.34;4842957;28;99466;-63
2022/07/18 03:12:03;;;;;;;;;;;;;;;14.04;49.38;101597.72;4843825;28;98195;-63
2022/07/18 03:14:56;;;;;;;;;;;;;;;14.01;49.64;101596.34;4926009;28;98817;-57
2022/07/18 03:17:48;;;;;;;;;;;;;;;13.98;49.40;101605.00;4830215;28;98371;-64
2022/07/18 03:20:41;;;;;;;;;;;;;;;13.94;49.67;101601.16;4842592;28;97963;-57
2022/07/18 03:23:33;;;;;;;;;;;;;;;13.91;49.68;101610.66;4843610;28;98077;-63
2022/07/18 03:26:26;;;;;;;;;;;;;;;13.89;49.62;101612.81;4841850;28;97883;-57
2022/07/18 03:29:18;;;;;;;;;;;;;;;13.88;49.52;101616.59;4842526;28;98318;-64
2022/07/18 03:32:11;;;;;;;;;;;;;;;13.85;49.58;101611.69;4843124;28;99054;-56
2022/07/18 03:35:04;;;;;;;;;;;;;;;13.86;49.56;101610.59;4842270;28;97962;-56
2022/07/18 03:37:56;;;;;;;;;;;;;;;13.86;49.93;101599.78;4842325;28;97827;-64
2022/07/18 03:40:49;;;;;;;;;;;;;;;13.89;49.64;101609.28;4842513;28;98433;-63
2022/07/18 03:43:41;;;;;;;;;;;;;;;13.89;49.83;101610.09;4842947;28;98478;-63
2022/07/18 03:46:34;;;;;;;;;;;;;;;13.90;49.54;101600.88;4842727;28;98209;-63
2022/07/18 03:49:27;;;;;;;;;;;;;;;13.91;49.72;101604.41;4842223;28;97878;-56
2022/07/18 03:52:19;;;;;;;;;;;;;;;13.91;49.80;101604.41;4842931;28;98162;-56
2022/07/18 03:55:13;;;;;;;;;;;;;;;13.91;49.66;101607.13;4906137;28;100294;-63
2022/07/18 03:58:05;;;;;;;;;;;;;;;13.90;50.02;101606.28;4827446;28;97874;-63
2022/07/18 04:00:58;;;;;;;;;;;;;;;13.88;49.68;101607.66;4843429;28;97702;-65
2022/07/18 04:03:51;;;;;;;;;;;;;;;13.84;49.64;101612.78;4842497;28;98790;-63
2022/07/18 04:06:43;;;;;;;;;;;;;;;13.84;49.91;101601.13;4844240;28;98255;-56
2022/07/18 04:09:36;;;;;;;;;;;;;;;13.83;49.85;101599.47;4843213;28;97890;-63
2022/07/18 04:12:28;;;;;;;;;;;;;;;13.84;49.95;101599.22;4843308;28;97759;-59
2022/07/18 04:15:21;;;;;;;;;;;;;;;13.85;50.00;101600.84;4843947;28;98527;-65
2022/07/18 04:18:13;;;;;;;;;;;;;;;13.90;49.98;101608.19;4842841;28;98287;-65
2022/07/18 04:21:06;;;;;;;;;;;;;;;13.93;49.82;101607.69;4842306;28;98869;-65
2022/07/18 04:23:59;;;;;;;;;;;;;;;13.98;49.77;101619.34;4842343;28;97914;-65
2022/07/18 04:26:51;;;;;;;;;;;;;;;14.01;49.45;101620.75;4842003;28;98930;-66
2022/07/18 04:29:44;;;;;;;;;;;;;;;14.05;49.65;101621.03;4841374;28;98680;-63
2022/07/18 04:32:36;;;;;;;;;;;;;;;14.12;49.50;101622.44;4842320;28;98010;-63
2022/07/18 04:35:29;;;;;;;;;;;;;;;14.19;49.43;101620.31;4843215;28;98635;-64
2022/07/18 04:38:22;;;;;;;;;;;;;;;14.25;49.65;101613.00;4842219;28;98550;-64
2022/07/18 04:41:16;;;;;;;;;;;;;;;14.31;49.69;101613.84;4842333;28;98760;-63
2022/07/18 04:44:09;;;;;;;;;;;;;;;14.38;49.53;101614.41;4841917;28;98488;-64
2022/07/18 04:47:02;;;;;;;;;;;;;;;14.42;49.74;101605.50;4842298;28;97856;-63
2022/07/18 04:49:54;;;;;;;;;;;;;;;14.49;49.59;101602.53;4842239;28;99179;-63
2022/07/18 04:53:07;;;;;;;;;;;;;;;14.55;49.49;101592.53;4841859;28;98601;-64
2022/07/18 04:56:00;;;;;;;;;;;;;;;14.60;49.09;101593.34;4873483;28;98124;-64
2022/07/18 04:58:53;;;;;;;;;;;;;;;14.66;49.49;101594.22;4842457;28;98091;-65
2022/07/18 05:01:45;;;;;;;;;;;;;;;14.74;49.22;101588.25;4827728;28;98365;-63
2022/07/18 05:04:38;;;;;;;;;;;;;;;14.86;48.68;101588.81;4841659;28;98218;-63
2022/07/18 05:07:31;;;;;;;;;;;;;;;15.01;48.51;101584.47;4841818;28;98368;-64
2022/07/18 05:10:33;;;;;;;;;;;;;;;15.19;48.30;101592.09;4841766;28;98013;-63
2022/07/18 05:13:25;;;;;;;;;;;;;;;15.37;48.13;101577.19;4841227;28;98209;-56
2022/07/18 05:16:18;;;;;;;;;;;;;;;15.58;47.98;101583.41;4840629;28;99077;-64
2022/07/18 05:19:11;;;;;;;;;;;;;;;15.79;47.50;101573.31;4842220;28;98157;-64
2022/07/18 05:22:03;;;;;;;;;;;;;;;16.02;47.57;101580.88;4842208;28;97709;-64
2022/07/18 05:24:56;;;;;;;;;;;;;;;16.28;47.29;101575.34;4840521;28;98978;-57
2022/07/18 05:27:48;;;;;;;;;;;;;;;16.52;46.89;101580.94;4841274;28;98383;-63
2022/07/18 05:30:41;;;;;;;;;;;;;;;16.68;46.82;101577.84;4841665;28;97936;-63
2022/07/18 05:33:34;;;;;;;;;;;;;;;16.91;46.40;101583.75;4841898;28;98058;-56
2022/07/18 05:36:27;;;;;;;;;;;;;;;17.20;46.13;101585.69;4832537;28;98157;-58
2022/07/18 05:39:19;;;;;;;;;;;;;;;17.47;45.76;101572.38;4842272;28;98423;-64
2022/07/18 05:42:12;;;;;;;;;;;;;;;17.76;45.51;101582.50;4840967;28;97857;-57
2022/07/18 05:45:04;;;;;;;;;;;;;;;18.04;45.15;101587.09;4841660;28;97910;-63
2022/07/18 05:47:57;;;;;;;;;;;;;;;18.35;44.90;101582.09;4841179;28;98631;-63
2022/07/18 05:50:50;;;;;;;;;;;;;;;18.68;44.45;101581.38;4841188;28;97969;-63
2022/07/18 05:53:42;;;;;;;;;;;;;;;19.03;44.17;101578.13;4841371;28;98135;-60
2022/07/18 05:56:35;;;;;;;;;;;;;;;19.40;43.65;101579.16;4841223;28;97700;-57
2022/07/18 05:59:27;;;;;;;;;;;;;;;19.81;43.11;101579.28;4840770;28;97864;-57
2022/07/18 06:02:20;;;;;;;;;;;;;;;21.03;41.58;101577.78;4841397;28;98282;-57
2022/07/18 06:05:12;;;;;;;;;;;;;;;22.47;39.63;101581.06;4840795;28;98303;-63
2022/07/18 06:08:05;;;;;;;;;;;;;;;23.31;39.56;101589.97;4904435;28;98210;-63
2022/07/18 06:10:58;;;;;;;;;;;;;;;26.16;35.64;101589.75;4841442;28;98536;-57
2022/07/18 06:13:50;;;;;;;;;;;;;;;27.55;33.89;101600.50;4840987;28;98385;-63
2022/07/18 06:16:43;;;;;;;;;;;;;;;27.00;35.33;101597.44;4841107;28;98133;-57
2022/07/18 06:19:36;;;;;;;;;;;;;;;27.92;34.18;101594.75;4905833;28;98155;-64
2022/07/18 06:22:29;;;;;;;;;;;;;;;29.96;31.19;101585.84;4840453;28;98767;-61
2022/07/18 06:25:22;;;;;;;;;;;;;;;29.52;31.96;101583.50;4840273;28;99816;-64
2022/07/18 06:28:14;;;;;;;;;;;;;;;29.74;31.64;101591.03;4840479;28;97990;-63
2022/07/18 06:31:07;;;;;;;;;;;;;;;29.59;31.70;101578.91;4903795;28;97849;-57
2022/07/18 06:34:00;;;;;;;;;;;;;;;29.72;32.07;101582.28;4840177;28;97932;-63
2022/07/18 06:36:53;;;;;;;;;;;;;;;29.91;31.50;101577.81;4840120;28;98051;-56
2022/07/18 06:39:57;;;;;;;;;;;;;;;30.16;31.40;101578.22;4840548;28;109643;-57
2022/07/18 06:42:50;;;;;;;;;;;;;;;30.29;30.88;101571.25;4842053;28;98260;-57
2022/07/18 06:45:42;;;;;;;;;;;;;;;30.47;30.94;101571.50;4840440;28;99227;-57
2022/07/18 06:48:35;;;;;;;;;;;;;;;30.77;30.21;101575.13;4840424;28;98392;-57
2022/07/18 06:51:37;;;;;;;;;;;;;;;30.92;30.26;101570.50;4840911;28;98144;-63
2022/07/18 06:54:30;;;;;;;;;;;;;;;31.13;29.88;101569.16;4843756;28;97917;-63
2022/07/18 06:57:22;;;;;;;;;;;;;;;31.35;29.14;101570.19;4824594;28;97918;-57
2022/07/18 07:00:15;;;;;;;;;;;;;;;31.46;28.82;101565.50;4825857;28;98515;-57
2022/07/18 07:03:08;;;;;;;;;;;;;;;31.56;28.78;101566.78;4883728;28;97992;-57
2022/07/18 07:06:01;;;;;;;;;;;;;;;31.61;28.49;101564.44;4836800;28;98403;-57
2022/07/18 07:08:53;;;;;;;;;;;;;;;31.66;28.70;101558.53;4843250;28;97794;-63
2022/07/18 07:11:46;;;;;;;;;;;;;;;31.75;28.18;101555.41;4843832;28;98671;-57
2022/07/18 07:14:38;;;;;;;;;;;;;;;31.89;28.11;101557.53;4842845;28;97765;-57
2022/07/18 07:17:31;;;;;;;;;;;;;;;32.08;27.83;101554.47;4825178;28;97960;-63
2022/07/18 07:20:24;;;;;;;;;;;;;;;32.26;27.59;101549.78;4835174;28;97819;-57
2022/07/18 07:23:17;;;;;;;;;;;;;;;32.39;27.07;101541.94;4908096;28;97977;-57
2022/07/18 07:26:10;;;;;;;;;;;;;;;32.64;27.08;101542.03;4842887;28;98199;-57
2022/07/18 07:29:02;;;;;;;;;;;;;;;32.77;26.75;101536.06;4843273;28;97979;-64
2022/07/18 07:31:55;;;;;;;;;;;;;;;33.01;26.59;101537.34;4843798;28;97992;-65
2022/07/18 07:34:47;;;;;;;;;;;;;;;33.20;26.25;101540.56;4843017;28;98336;-57
2022/07/18 07:37:40;;;;;;;;;;;;;;;33.40;26.36;101543.00;4842813;28;98075;-57
2022/07/18 07:40:33;;;;;;;;;;;;;;;33.58;25.82;101541.03;4843329;28;97853;-57
2022/07/18 07:43:42;;;;;;;;;;;;;;;33.62;25.66;101543.81;4843713;28;98506;-63
2022/07/18 07:46:35;;;;;;;;;;;;;;;33.75;25.52;101541.41;4887899;28;98199;-57
2022/07/18 07:49:28;;;;;;;;;;;;;;;33.93;25.34;101540.19;4842697;28;97893;-57
2022/07/18 07:52:23;;;;;;;;;;;;;;;34.17;25.10;101532.97;4843779;28;97950;-57
2022/07/18 07:55:16;;;;;;;;;;;;;;;34.37;24.45;101538.88;4842597;28;98275;-57
2022/07/18 07:58:09;;;;;;;;;;;;;;;34.62;24.39;101530.41;4842416;28;98504;-57
2022/07/18 08:01:02;;;;;;;;;;;;;;;34.93;24.08;101542.63;4841929;28;97974;-57
2022/07/18 08:03:54;;;;;;;;;;;;;;;35.27;23.55;101536.44;4841640;28;97933;-64
2022/07/18 08:06:47;;;;;;;;;;;;;;;35.76;22.87;101537.22;4822877;28;98235;-57
2022/07/18 08:09:40;;;;;;;;;;;;;;;36.24;22.93;101536.34;4840034;28;98398;-65
2022/07/18 08:12:32;;;;;;;;;;;;;;;36.70;22.72;101534.19;4841525;28;98043;-65
2022/07/18 08:15:25;;;;;;;;;;;;;;;37.12;22.51;101529.97;4841642;28;97947;-65
2022/07/18 08:18:17;;;;;;;;;;;;;;;37.55;21.83;101529.28;4842199;28;98456;-57
2022/07/18 08:21:10;;;;;;;;;;;;;;;37.98;21.90;101525.72;4840610;28;98973;-65
2022/07/18 08:24:02;;;;;;;;;;;;;;;38.57;20.98;101524.13;4840987;28;97932;-64
2022/07/18 08:26:55;;;;;;;;;;;;;;;39.17;20.81;101522.72;4842107;28;97950;-57
2022/07/18 08:29:48;;;;;;;;;;;;;;;39.76;20.29;101515.22;4841349;28;98684;-64
2022/07/18 08:32:40;;;;;;;;;;;;;;;40.30;19.03;101511.69;4841441;28;98392;-64
2022/07/18 08:35:33;;;;;;;;;;;;;;;40.83;18.68;101511.28;4914696;28;98636;-58
2022/07/18 08:38:26;;;;;;;;;;;;;;;41.22;18.82;101507.97;4841334;28;98102;-65
2022/07/18 08:41:19;;;;;;;;;;;;;;;41.58;18.40;101489.00;4840799;28;97923;-58
2022/07/18 08:44:11;;;;;;;;;;;;;;;41.85;17.54;101491.28;4840751;28;97813;-65
2022/07/18 08:47:06;;;;;;;;;;;;;;;42.24;17.67;101481.34;4841242;28;98664;-58
2022/07/18 08:49:59;;;;;;;;;;;;;;;42.57;16.99;101478.84;4841684;28;97703;-58
2022/07/18 08:52:52;;;;;;;;;;;;;;;42.94;16.84;101478.19;4841187;28;98550;-58
2022/07/18 08:55:44;;;;;;;;;;;;;;;43.34;16.42;101480.94;4840747;28;99864;-65
2022/07/18 08:58:37;;;;;;;;;;;;;;;43.84;16.35;101479.53;4840854;28;98366;-65
2022/07/18 09:01:30;;;;;;;;;;;;;;;44.41;16.06;101483.84;4841661;28;97932;-58
2022/07/18 09:04:34;;;;;;;;;;;;;;;45.19;15.63;101490.56;4841620;28;98238;-66
2022/07/18 09:07:38;;;;;;;;;;;;;;;45.72;14.92;101481.31;4914121;28;98303;-61
2022/07/18 09:10:31;;;;;;;;;;;;;;;46.17;15.11;101476.41;4841236;28;98122;-65
2022/07/18 09:13:24;;;;;;;;;;;;;;;46.62;14.81;101471.50;4822961;28;98033;-58
2022/07/18 09:16:37;;;;;;;;;;;;;;;47.02;14.43;101469.97;4821261;28;97979;-64
2022/07/18 09:19:30;;;;;;;;;;;;;;;47.11;14.16;101450.63;4825706;28;97832;-63
2022/07/18 09:22:43;;;;;;;;;;;;;;;47.45;14.16;101459.63;4901580;28;99938;-64
2022/07/18 09:25:40;;;;;;;;;;;;;;;47.67;15.04;101456.97;4836506;28;97799;-67
2022/07/18 09:28:32;;;;;;;;;;;;;;;47.74;14.92;101447.22;4840687;28;98311;-61
2022/07/18 09:31:34;;;;;;;;;;;;;;;46.77;15.51;101440.84;4840684;28;98549;-65
2022/07/18 09:34:38;;;;;;;;;;;;;;;45.94;15.29;101439.03;4840194;28;98010;-60
2022/07/18 09:37:31;;;;;;;;;;;;;;;45.23;16.04;101437.13;4840662;28;98164;-60
2022/07/18 09:40:52;;;;;;;;;;;;;;;44.73;15.60;101442.53;4840283;28;98327;-59
2022/07/18 09:43:55;;;;;;;;;;;;;;;44.83;15.89;101444.03;4845053;28;98566;-59
2022/07/18 09:46:58;;;;;;;;;;;;;;;45.09;15.80;101449.28;4826346;28;98436;-63
2022/07/18 09:49:52;;;;;;;;;;;;;;;45.68;15.45;101447.34;4822303;28;97971;-58
2022/07/18 09:52:45;;;;;;;;;;;;;;;46.50;14.79;101442.78;4821992;28;99067;-63
2022/07/18 09:55:37;;;;;;;;;;;;;;;47.31;14.27;101440.50;4839939;28;98057;-58
2022/07/18 09:58:40;;;;;;;;;;;;;;;47.63;14.16;101444.22;4840914;28;98468;-63
2022/07/18 10:01:33;;;;;;;;;;;;;;;48.10;13.56;101442.09;4841377;28;97740;-58
2022/07/18 10:04:25;;;;;;;;;;;;;;;48.73;13.34;101441.19;4839280;28;97757;-58
2022/07/18 10:07:18;;;;;;;;;;;;;;;49.26;13.28;101445.38;4840284;28;98703;-63
2022/07/18 10:10:11;;;;;;;;;;;;;;;49.79;13.26;101444.41;4840585;28;98619;-63
2022/07/18 10:13:04;;;;;;;;;;;;;;;49.93;12.64;101442.63;4840618;28;98000;-58
2022/07/18 10:15:57;;;;;;;;;;;;;;;50.01;12.61;101440.81;4839695;28;98532;-64
2022/07/18 10:18:51;;;;;;;;;;;;;;;50.11;12.56;101441.31;4839798;28;98238;-58
2022/07/18 10:21:52;;;;;;;;;;;;;;;50.09;12.80;101435.34;4839621;28;98421;-63
2022/07/18 10:24:49;;;;;;;;;;;;;;;50.06;12.43;101430.66;4914252;28;97743;-63
2022/07/18 10:28:08;;;;;;;;;;;;;;;50.00;12.33;101436.38;4841132;28;98400;-58
2022/07/18 10:31:10;;;;;;;;;;;;;;;49.91;11.79;101435.84;4841169;28;98417;-63
2022/07/18 10:34:12;;;;;;;;;;;;;;;49.43;11.94;101433.94;4840134;28;97946;-58
2022/07/18 10:37:14;;;;;;;;;;;;;;;49.18;11.78;101422.22;4843053;28;98429;-63
2022/07/18 10:40:06;;;;;;;;;;;;;;;49.39;11.85;101417.03;4842201;28;98568;-64
2022/07/18 10:43:10;;;;;;;;;;;;;;;49.54;11.84;101429.06;4917257;28;98194;-57
2022/07/18 10:46:20;;;;;;;;;;;;;;;49.27;11.83;101421.19;4840658;28;97988;-63
2022/07/18 10:49:22;;;;;;;;;;;;;;;49.47;11.88;101420.16;4886271;28;98027;-62
2022/07/18 10:52:15;;;;;;;;;;;;;;;49.59;11.72;101418.91;4842773;28;98063;-57
2022/07/18 10:55:19;;;;;;;;;;;;;;;49.80;11.73;101410.88;4842266;28;99022;-63
2022/07/18 10:58:29;;;;;;;;;;;;;;;49.53;11.70;101403.81;4841489;28;98806;-63
2022/07/18 11:01:24;;;;;;;;;;;;;;;49.15;12.10;101408.94;4843290;28;98064;-62
2022/07/18 11:04:51;;;;;;;;;;;;;;;48.61;12.47;101401.13;4841431;28;98139;-63
2022/07/18 11:07:44;;;;;;;;;;;;;;;48.41;12.60;101392.69;4811518;28;98246;-57
2022/07/18 11:14:05;;;;;;;;;;;;;;;47.63;12.75;101381.44;4887285;28;98209;-62
2022/07/18 11:17:08;;;;;;;;;;;;;;;47.16;13.35;101381.47;4857853;28;98551;-62
2022/07/18 11:20:12;;;;;;;;;;;;;;;46.68;13.16;101376.22;4841810;28;98559;-64
2022/07/18 11:23:05;;;;;;;;;;;;;;;46.23;13.52;101375.59;4840817;28;98044;-63
2022/07/18 11:25:58;;;;;;;;;;;;;;;46.00;13.49;101374.44;4822667;28;98048;-57
2022/07/18 11:28:50;;;;;;;;;;;;;;;45.71;13.47;101380.91;4823207;28;98482;-62
2022/07/18 11:31:54;;;;;;;;;;;;;;;45.24;13.99;101367.63;4903713;28;100778;-57
2022/07/18 11:34:47;;;;;;;;;;;;;;;45.28;14.01;101365.38;4835456;28;97908;-57
2022/07/18 11:37:39;;;;;;;;;;;;;;;44.92;14.06;101374.97;4841850;28;97877;-57
2022/07/18 11:40:32;;;;;;;;;;;;;;;44.26;14.62;101364.50;4841052;28;97835;-57
2022/07/18 11:43:28;;;;;;;;;;;;;;;43.76;14.78;101355.50;4842004;28;98484;-57
2022/07/18 11:46:38;;;;;;;;;;;;;;;43.43;15.08;101355.38;4842375;28;98430;-62
2022/07/18 11:49:31;;;;;;;;;;;;;;;43.06;14.92;101353.34;4841504;28;97935;-62
2022/07/18 11:52:23;;;;;;;;;;;;;;;42.67;15.40;101355.03;4842198;28;98775;-56
2022/07/18 11:55:16;;;;;;;;;;;;;;;42.06;15.41;101346.16;4916059;28;98334;-57
2022/07/18 11:58:20;;;;;;;;;;;;;;;41.77;15.44;101337.19;4841311;28;98049;-63
2022/07/18 12:01:16;;;;;;;;;;;;;;;41.64;15.80;101332.41;4841212;28;98345;-63
2022/07/18 12:04:23;;;;;;;;;;;;;;;41.68;15.77;101338.72;4841717;28;98294;-62
2022/07/18 12:07:45;;;;;;;;;;;;;;;41.41;16.11;101327.22;4841279;28;99280;-62
2022/07/18 12:10:54;;;;;;;;;;;;;;;40.84;15.96;101321.56;4841627;28;98655;-62
2022/07/18 12:14:11;;;;;;;;;;;;;;;41.11;15.95;101326.69;4904271;28;99030;-64
2022/07/18 12:17:22;;;;;;;;;;;;;;;41.30;15.94;101330.41;4844972;28;98440;-57
2022/07/18 12:20:35;;;;;;;;;;;;;;;41.50;15.80;101329.31;4841648;28;98371;-57
2022/07/18 12:23:45;;;;;;;;;;;;;;;41.44;15.96;101332.75;4842302;28;97949;-62
2022/07/18 12:26:49;;;;;;;;;;;;;;;41.43;16.02;101328.34;4885706;28;97815;-57
2022/07/18 12:29:42;;;;;;;;;;;;;;;41.36;15.81;101325.75;4905102;28;98368;-56
2022/07/18 12:32:35;;;;;;;;;;;;;;;40.73;16.21;101321.16;4917349;28;98521;-62
2022/07/18 12:36:04;;;;;;;;;;;;;;;39.99;17.01;101320.28;4840368;28;97867;-62
2022/07/18 12:38:49;;;;;;;;;;;;;;;39.85;16.95;101319.91;4844754;28;99012;-62
2022/07/18 12:41:46;;;;;;;;;;;;;;;39.30;17.31;101321.91;4842059;28;98556;-62
2022/07/18 12:44:47;;;;;;;;;;;;;;;39.08;17.24;101319.69;4839967;28;98798;-63
2022/07/18 12:47:40;;;;;;;;;;;;;;;39.16;17.37;101309.00;4841029;28;98323;-62
2022/07/18 12:50:33;;;;;;;;;;;;;;;39.04;17.47;101314.16;4840760;28;98195;-62
2022/07/18 12:53:25;;;;;;;;;;;;;;;38.82;17.77;101304.69;4841051;28;98243;-62
2022/07/18 12:56:18;;;;;;;;;;;;;;;38.47;17.69;101307.16;4822804;28;98975;-57
2022/07/18 12:59:11;;;;;;;;;;;;;;;38.44;17.67;101298.81;4821455;28;97983;-56
2022/07/18 13:02:03;;;;;;;;;;;;;;;38.29;18.22;101296.31;4886384;28;98203;-62
2022/07/18 13:04:56;;;;;;;;;;;;;;;37.96;18.40;101295.47;4833035;28;98329;-56
2022/07/18 13:07:49;;;;;;;;;;;;;;;37.57;18.28;101285.06;4840352;28;98202;-62
2022/07/18 13:10:41;;;;;;;;;;;;;;;37.20;18.91;101289.81;4838351;28;98071;-62
2022/07/18 13:13:34;;;;;;;;;;;;;;;36.90;19.05;101287.97;4839098;28;97911;-62
2022/07/18 13:16:26;;;;;;;;;;;;;;;37.14;18.70;101290.75;4839495;28;98628;-62
2022/07/18 13:19:19;;;;;;;;;;;;;;;37.13;18.64;101289.19;4838589;28;98288;-63
2022/07/18 13:22:11;;;;;;;;;;;;;;;37.16;18.90;101291.13;4839116;28;98099;-62
2022/07/18 13:25:04;;;;;;;;;;;;;;;37.45;18.76;101289.34;4839214;28;98184;-60
2022/07/18 13:27:56;;;;;;;;;;;;;;;37.66;18.88;101302.16;4839179;28;98358;-63
2022/07/18 13:30:49;;;;;;;;;;;;;;;37.23;19.00;101294.59;4916575;28;98077;-57
2022/07/18 13:33:42;;;;;;;;;;;;;;;36.94;19.12;101293.53;4918146;28;98178;-56
2022/07/18 13:36:34;;;;;;;;;;;;;;;36.72;19.36;101285.50;4918195;28;98196;-62
2022/07/18 13:39:27;;;;;;;;;;;;;;;37.08;19.15;101291.25;4898481;28;98314;-62
2022/07/18 13:42:20;;;;;;;;;;;;;;;37.11;19.32;101286.81;4898832;28;98416;-56
2022/07/18 13:45:13;;;;;;;;;;;;;;;37.15;19.00;101279.09;4910895;28;97963;-56
2022/07/18 13:48:06;;;;;;;;;;;;;;;37.04;19.06;101284.91;4918729;28;98238;-63
2022/07/18 13:50:58;;;;;;;;;;;;;;;36.99;19.41;101274.19;4917377;28;98678;-62
2022/07/18 13:53:51;;;;;;;;;;;;;;;36.74;19.48;101268.22;4918618;28;99464;-63
2022/07/18 13:56:44;;;;;;;;;;;;;;;36.46;19.53;101275.91;4918102;28;97960;-57
2022/07/18 13:59:36;;;;;;;;;;;;;;;36.41;19.55;101272.78;4917923;28;97904;-64
2022/07/18 14:02:29;;;;;;;;;;;;;;;36.40;19.40;101268.38;4916307;28;98295;-56
2022/07/18 14:05:22;;;;;;;;;;;;;;;36.26;19.85;101264.56;4921327;28;98231;-57
2022/07/18 14:08:14;;;;;;;;;;;;;;;36.11;20.10;101261.19;4921607;28;98240;-62
2022/07/18 14:11:07;;;;;;;;;;;;;;;35.81;20.38;101264.06;4921280;28;97969;-56
2022/07/18 14:13:59;;;;;;;;;;;;;;;35.56;20.36;101256.75;4921324;28;98647;-63
2022/07/18 14:16:53;;;;;;;;;;;;;;;35.34;20.80;101261.03;4922105;28;98017;-62
2022/07/18 14:19:46;;;;;;;;;;;;;;;35.04;20.37;101265.38;4920512;28;98342;-58
2022/07/18 14:22:38;;;;;;;;;;;;;;;34.73;20.75;101247.66;4922328;28;97965;-56
2022/07/18 14:25:32;;;;;;;;;;;;;;;34.47;20.75;101251.88;4902610;28;98620;-56
2022/07/18 14:28:25;;;;;;;;;;;;;;;34.28;21.55;101253.25;4918630;28;98853;-56
2022/07/18 14:31:18;;;;;;;;;;;;;;;34.05;21.11;101250.22;4904521;28;97900;-58
2022/07/18 14:34:10;;;;;;;;;;;;;;;33.93;21.54;101246.66;4840162;28;97835;-56
2022/07/18 14:37:03;;;;;;;;;;;;;;;33.83;21.90;101252.31;4841370;28;98361;-62
2022/07/18 14:39:56;;;;;;;;;;;;;;;33.69;21.48;101253.19;4841988;28;98900;-62
2022/07/18 14:42:48;;;;;;;;;;;;;;;33.58;21.70;101252.44;4843474;28;98447;-56
2022/07/18 14:45:41;;;;;;;;;;;;;;;33.45;21.67;101243.72;4843576;28;97956;-56
2022/07/18 14:48:33;;;;;;;;;;;;;;;33.31;22.26;101236.16;4844332;28;98536;-63
2022/07/18 14:51:26;;;;;;;;;;;;;;;33.17;22.42;101242.63;4843374;28;98311;-57
2022/07/18 14:54:19;;;;;;;;;;;;;;;33.07;22.50;101240.66;4842970;28;97940;-56
2022/07/18 14:57:20;;;;;;;;;;;;;;;32.98;22.18;101246.66;4842517;28;98447;-62
2022/07/18 15:00:13;;;;;;;;;;;;;;;32.88;22.28;101250.22;4842452;28;98621;-62